Villa Alegria, Puerto Rico
Current Conditions -  °F | °C
As of 10:50 PM on Friday 21 Nov 2014 (Local Time) from TJBQ Reporting Station
Clear Clear  
Wind Chill: 75°   Ceiling: Unl
Heat Index: 75°   Visibility: 10mi
Dew Point: 70°   Wind: 7mph
Humidity: 83%   Direction: 100°E
Pressure: 30.04"   Gusts: NA
Location:  18.4409°N, 67.1508°W
Report Text: TJBQ 220250Z 10006KT 10SM SKC 24/21 A3004 RMK RWY08 ATIS F
Loading
Personal Weather Stations






























Interactive Weather Map New forecast layout! Learn more

10-Day Weather Forecast

Advertisements
Track Severe Weather on mobile